createdAt,value
2023-03-02T00:01:10.411Z,83.82
2023-03-02T00:03:40.476Z,83.60
2023-03-02T00:06:08.908Z,84.44
2023-03-02T00:08:36.745Z,83.81
2023-03-02T00:11:03.569Z,83.74
2023-03-02T00:13:32.088Z,83.60
2023-03-02T00:15:58.905Z,84.18
2023-03-02T00:18:25.581Z,83.23
2023-03-02T00:20:52.206Z,82.71
2023-03-02T00:23:19.219Z,81.72
2023-03-02T00:25:45.905Z,82.32
2023-03-02T00:28:12.596Z,81.60
2023-03-02T00:30:39.291Z,81.25
2023-03-02T00:33:05.934Z,81.11
2023-03-02T00:35:38.048Z,80.92
2023-03-02T00:38:04.840Z,81.23
2023-03-02T00:40:31.467Z,79.91
2023-03-02T00:42:58.100Z,80.84
2023-03-02T00:45:24.999Z,80.24
2023-03-02T00:47:51.709Z,81.11
2023-03-02T00:50:18.366Z,80.22
2023-03-02T00:52:45.037Z,81.19
2023-03-02T00:55:11.718Z,80.33
2023-03-02T00:57:38.329Z,80.08
2023-03-02T01:00:05.978Z,81.25
2023-03-02T01:02:32.730Z,80.43
2023-03-02T01:04:59.393Z,79.98
2023-03-02T01:07:28.304Z,80.63
2023-03-02T01:09:54.990Z,81.43
2023-03-02T01:12:24.113Z,81.32
2023-03-02T01:14:50.955Z,81.71
2023-03-02T01:17:17.680Z,81.26
2023-03-02T01:19:44.666Z,82.08
2023-03-02T01:22:11.582Z,82.15
2023-03-02T01:24:38.181Z,81.67
2023-03-02T01:27:04.811Z,82.26
2023-03-02T01:29:31.543Z,82.19
2023-03-02T01:31:58.244Z,83.04
2023-03-02T01:34:25.005Z,83.15
2023-03-02T01:36:51.687Z,83.84
2023-03-02T01:39:18.464Z,82.92
2023-03-02T01:41:46.485Z,83.36
2023-03-02T01:44:44.626Z,83.95
2023-03-02T01:47:26.807Z,83.46
2023-03-02T01:49:59.148Z,84.00
2023-03-02T01:52:26.785Z,83.86
2023-03-02T01:54:57.659Z,84.47
2023-03-02T01:57:32.802Z,84.68
2023-03-02T02:00:08.565Z,84.35
2023-03-02T02:02:36.468Z,84.21
2023-03-02T02:05:04.128Z,84.65
2023-03-02T02:07:31.346Z,84.14
2023-03-02T02:09:58.821Z,83.93
2023-03-02T02:12:25.611Z,84.15
2023-03-02T02:14:53.969Z,84.00
2023-03-02T02:17:20.712Z,84.22
2023-03-02T02:20:16.462Z,84.36
2023-03-02T02:23:17.554Z,84.37
2023-03-02T02:26:13.895Z,85.37
2023-03-02T02:29:14.664Z,85.18
2023-03-02T02:32:05.122Z,85.21
2023-03-02T02:34:58.825Z,85.91
2023-03-02T02:37:38.478Z,86.05
2023-03-02T02:40:10.375Z,86.32
2023-03-02T02:42:42.226Z,85.86
2023-03-02T02:45:21.099Z,85.52
2023-03-02T02:47:49.468Z,85.69
2023-03-02T02:50:35.360Z,84.63
2023-03-02T02:53:26.098Z,85.26
2023-03-02T02:55:56.879Z,85.09
2023-03-02T02:58:51.101Z,85.39
2023-03-02T03:01:27.716Z,85.48
2023-03-02T03:04:02.211Z,84.36
2023-03-02T03:06:38.511Z,84.87
2023-03-02T03:09:10.337Z,84.55
2023-03-02T03:11:41.348Z,84.96
2023-03-02T03:14:11.596Z,85.27
2023-03-02T03:16:41.530Z,85.08
2023-03-02T03:19:11.877Z,85.28
2023-03-02T03:21:38.560Z,85.11
2023-03-02T03:24:05.753Z,85.04
2023-03-02T03:26:32.762Z,85.73
2023-03-02T03:28:59.876Z,85.83
2023-03-02T03:31:27.452Z,84.92
2023-03-02T03:33:55.825Z,85.74
2023-03-02T03:36:22.817Z,85.13
2023-03-02T03:38:49.508Z,85.29
2023-03-02T03:41:16.276Z,85.94
2023-03-02T03:43:43.057Z,85.90
2023-03-02T03:46:09.696Z,86.26
2023-03-02T03:48:36.594Z,86.13
2023-03-02T03:51:03.787Z,85.62
2023-03-02T03:53:30.503Z,85.99
2023-03-02T03:55:57.213Z,85.27
2023-03-02T03:58:25.315Z,85.53
2023-03-02T04:00:52.881Z,85.66
2023-03-02T04:03:20.519Z,85.97
2023-03-02T04:05:48.177Z,86.16
2023-03-02T04:08:14.825Z,85.97
2023-03-02T04:10:41.804Z,86.34
2023-03-02T04:13:08.674Z,85.97
2023-03-02T04:15:35.471Z,85.88
2023-03-02T04:18:02.484Z,85.85
2023-03-02T04:20:29.743Z,85.64
2023-03-02T04:22:57.761Z,86.34
2023-03-02T04:25:26.571Z,86.46
2023-03-02T04:27:53.855Z,85.95
2023-03-02T04:30:24.802Z,86.26
2023-03-02T04:32:51.581Z,86.11
2023-03-02T04:35:18.297Z,86.36
2023-03-02T04:37:46.989Z,86.22
2023-03-02T04:40:14.737Z,86.26
2023-03-02T04:42:41.825Z,86.83
2023-03-02T04:45:09.310Z,86.74
2023-03-02T04:47:36.013Z,86.51
2023-03-02T04:50:03.287Z,86.14
2023-03-02T04:52:29.962Z,85.92
2023-03-02T04:54:56.602Z,86.21
2023-03-02T04:57:23.258Z,85.60
2023-03-02T04:59:49.885Z,85.46
2023-03-02T05:02:16.624Z,85.57
2023-03-02T05:04:43.309Z,85.42
2023-03-02T05:07:09.970Z,85.49
2023-03-02T05:09:36.727Z,85.62
2023-03-02T05:12:03.913Z,86.11
2023-03-02T05:14:30.983Z,85.54
2023-03-02T05:16:57.789Z,84.96
2023-03-02T05:19:24.453Z,85.17
2023-03-02T05:21:51.111Z,85.26
2023-03-02T05:24:17.806Z,85.42
2023-03-02T05:26:44.489Z,85.49
2023-03-02T05:29:11.210Z,85.85
2023-03-02T05:31:41.414Z,85.65
2023-03-02T05:34:11.513Z,85.11
2023-03-02T05:36:38.903Z,85.75
2023-03-02T05:39:06.932Z,85.79
2023-03-02T05:41:33.900Z,85.28
2023-03-02T05:44:01.108Z,85.59
2023-03-02T05:46:28.201Z,85.30
2023-03-02T05:48:54.829Z,85.76
2023-03-02T05:51:21.655Z,85.76
2023-03-02T05:53:48.405Z,85.99
2023-03-02T05:56:15.051Z,85.95
2023-03-02T05:58:41.699Z,85.11
2023-03-02T06:01:12.665Z,86.18
2023-03-02T06:03:41.832Z,85.78
2023-03-02T06:06:08.430Z,85.22
2023-03-02T06:08:35.193Z,84.76
2023-03-02T06:11:01.890Z,85.24
2023-03-02T06:13:28.548Z,84.30
2023-03-02T06:15:55.834Z,84.70
2023-03-02T06:18:22.469Z,83.46
2023-03-02T06:20:50.566Z,84.11
2023-03-02T06:23:17.295Z,83.65
2023-03-02T06:25:48.588Z,83.98
2023-03-02T06:28:16.613Z,84.18
2023-03-02T06:30:43.316Z,84.33
2023-03-02T06:33:10.099Z,83.85
2023-03-02T06:35:36.823Z,83.37
2023-03-02T06:38:03.673Z,83.79
2023-03-02T06:40:31.034Z,82.88
2023-03-02T06:43:00.924Z,83.01
2023-03-02T06:45:29.240Z,83.46
2023-03-02T06:47:56.133Z,83.16
2023-03-02T06:50:22.774Z,81.87
2023-03-02T06:52:49.401Z,82.21
2023-03-02T06:55:16.070Z,82.79
2023-03-02T06:57:42.713Z,82.35
2023-03-02T07:00:15.454Z,83.25
2023-03-02T07:02:42.104Z,82.12
2023-03-02T07:05:08.962Z,82.54
2023-03-02T07:07:35.686Z,82.22
2023-03-02T07:10:02.595Z,82.06
2023-03-02T07:12:29.207Z,82.84
2023-03-02T07:14:55.883Z,82.14
2023-03-02T07:17:22.545Z,82.47
2023-03-02T07:19:49.206Z,82.03
2023-03-02T07:22:15.895Z,81.78
2023-03-02T07:24:44.861Z,81.48
2023-03-02T07:27:11.741Z,82.26
2023-03-02T07:29:38.466Z,81.05
2023-03-02T07:32:06.909Z,80.91
2023-03-02T07:34:33.565Z,81.09
2023-03-02T07:37:00.302Z,80.64
2023-03-02T07:39:26.949Z,80.92
2023-03-02T07:41:53.578Z,78.81
2023-03-02T07:44:20.292Z,80.26
2023-03-02T07:46:47.028Z,80.49
2023-03-02T07:49:13.663Z,79.89
2023-03-02T07:51:40.324Z,79.69
2023-03-02T07:54:06.979Z,79.68
2023-03-02T07:56:33.612Z,79.14
2023-03-02T07:59:00.246Z,79.03
2023-03-02T08:01:27.150Z,78.33
2023-03-02T08:03:53.948Z,78.48
2023-03-02T08:06:20.796Z,78.03
2023-03-02T08:08:47.440Z,78.36
2023-03-02T08:11:17.302Z,78.10
2023-03-02T08:13:45.453Z,77.89
2023-03-02T08:16:13.927Z,78.24
2023-03-02T08:18:41.539Z,77.85
2023-03-02T08:21:13.394Z,77.83
2023-03-02T08:23:40.226Z,78.47
2023-03-02T08:26:07.133Z,77.88
2023-03-02T08:28:34.669Z,77.42
2023-03-02T08:31:02.553Z,77.71
2023-03-02T08:33:30.849Z,76.62
2023-03-02T08:36:06.623Z,76.45
2023-03-02T08:38:35.219Z,76.92
2023-03-02T08:41:09.526Z,76.35
2023-03-02T08:43:36.434Z,76.24
2023-03-02T08:46:04.236Z,76.61
2023-03-02T08:48:31.408Z,77.21
2023-03-02T08:51:04.974Z,76.97
2023-03-02T08:53:34.908Z,77.05
2023-03-02T08:56:01.737Z,76.26
2023-03-02T08:58:28.816Z,76.53
2023-03-02T09:00:55.755Z,76.32
2023-03-02T09:03:22.391Z,76.65
2023-03-02T09:05:48.986Z,75.90
2023-03-02T09:08:15.625Z,75.84
2023-03-02T09:10:42.242Z,76.91
2023-03-02T09:13:08.867Z,76.22
2023-03-02T09:15:35.673Z,75.48
2023-03-02T09:18:02.297Z,75.14
2023-03-02T09:20:28.991Z,75.11
2023-03-02T09:22:55.670Z,75.11
2023-03-02T09:25:22.340Z,74.75
2023-03-02T09:27:49.032Z,74.25
2023-03-02T09:30:16.312Z,74.66
2023-03-02T09:32:43.198Z,74.37
2023-03-02T09:35:10.372Z,73.60
2023-03-02T09:37:38.911Z,74.13
2023-03-02T09:40:16.370Z,73.94
2023-03-02T09:42:59.609Z,74.31
2023-03-02T09:45:59.059Z,74.51
2023-03-02T09:48:59.015Z,74.14
2023-03-02T09:51:35.046Z,74.12
2023-03-02T09:54:12.768Z,74.02
2023-03-02T09:56:52.378Z,73.92
2023-03-02T09:59:42.024Z,73.52
2023-03-02T10:02:28.147Z,73.76
2023-03-02T10:04:57.222Z,73.48
2023-03-02T10:07:29.203Z,73.19
2023-03-02T10:10:32.819Z,73.48
2023-03-02T10:13:05.169Z,73.14
2023-03-02T10:15:39.011Z,73.09
2023-03-02T10:18:42.155Z,72.90
2023-03-02T10:21:09.627Z,73.08
2023-03-02T10:24:01.039Z,73.30
2023-03-02T10:26:40.265Z,72.37
2023-03-02T10:29:21.757Z,72.67
2023-03-02T10:31:52.924Z,72.82
2023-03-02T10:34:19.854Z,72.94
2023-03-02T10:36:47.741Z,72.58
2023-03-02T10:39:16.088Z,72.06
2023-03-02T10:41:50.293Z,72.47
2023-03-02T10:44:25.625Z,72.06
2023-03-02T10:46:53.834Z,71.41
2023-03-02T10:49:35.433Z,71.25
2023-03-02T10:52:12.770Z,71.64
2023-03-02T10:54:39.603Z,71.57
2023-03-02T10:57:31.015Z,71.01
2023-03-02T11:00:22.144Z,71.10
2023-03-02T11:03:04.197Z,71.51
2023-03-02T11:05:40.066Z,71.63
2023-03-02T11:08:10.835Z,70.94
2023-03-02T11:10:40.839Z,71.02
2023-03-02T11:13:26.925Z,70.39
2023-03-02T11:16:02.136Z,70.73
2023-03-02T11:18:40.138Z,71.20
2023-03-02T11:21:11.885Z,70.57
2023-03-02T11:23:53.368Z,70.33
2023-03-02T11:26:30.560Z,69.73
2023-03-02T11:29:06.338Z,69.97
2023-03-02T11:31:41.532Z,69.67
2023-03-02T11:34:19.972Z,70.12
2023-03-02T11:37:16.740Z,69.68
2023-03-02T11:40:20.901Z,69.28
2023-03-02T11:42:47.970Z,68.29
2023-03-02T11:45:20.098Z,69.34
2023-03-02T11:48:08.129Z,68.75
2023-03-02T11:50:44.390Z,69.35
2023-03-02T11:53:15.756Z,68.70
2023-03-02T11:55:49.481Z,69.24
2023-03-02T11:58:21.749Z,69.33
2023-03-02T12:00:50.024Z,69.01
2023-03-02T12:03:23.747Z,68.73
2023-03-02T12:06:38.875Z,68.77
2023-03-02T12:09:33.171Z,68.79
2023-03-02T12:12:33.667Z,68.11
2023-03-02T12:15:01.178Z,67.81
2023-03-02T12:17:27.690Z,68.29
2023-03-02T12:20:08.885Z,68.00
2023-03-02T12:22:37.512Z,67.82
2023-03-02T12:25:26.347Z,68.04
2023-03-02T12:27:54.585Z,67.40
2023-03-02T12:30:26.694Z,67.55
2023-03-02T12:32:59.580Z,66.90
2023-03-02T12:35:26.710Z,66.92
2023-03-02T12:38:17.864Z,66.19
2023-03-02T12:40:47.155Z,66.07
2023-03-02T12:43:33.749Z,66.11
2023-03-02T12:46:18.832Z,66.31
2023-03-02T12:48:59.416Z,66.22
2023-03-02T12:51:29.371Z,66.17
2023-03-02T12:54:07.684Z,66.20
2023-03-02T12:56:34.669Z,66.26
2023-03-02T12:59:01.433Z,66.82
2023-03-02T13:01:30.265Z,66.43
2023-03-02T13:03:57.488Z,67.01
2023-03-02T13:06:27.548Z,67.16
2023-03-02T13:08:56.995Z,66.47
2023-03-02T13:11:33.875Z,64.84
2023-03-02T13:14:03.755Z,64.90
2023-03-02T13:16:33.380Z,64.87
2023-03-02T13:19:02.657Z,65.49
2023-03-02T13:21:37.660Z,64.03
2023-03-02T13:24:24.720Z,65.33
2023-03-02T13:27:04.633Z,64.62
2023-03-02T13:29:31.961Z,65.20
2023-03-02T13:32:42.060Z,64.74
2023-03-02T13:35:25.555Z,64.79
2023-03-02T13:38:14.156Z,64.70
2023-03-02T13:40:46.081Z,62.82
2023-03-02T13:43:35.888Z,63.77
2023-03-02T13:46:35.144Z,64.64
2023-03-02T13:49:10.708Z,64.62
2023-03-02T13:51:47.277Z,64.63
2023-03-02T13:54:22.414Z,64.92
2023-03-02T13:56:51.225Z,64.17
2023-03-02T13:59:20.138Z,63.17
2023-03-02T14:01:46.947Z,63.04
2023-03-02T14:04:17.581Z,62.43
2023-03-02T14:06:45.784Z,63.25
2023-03-02T14:09:12.841Z,62.70
2023-03-02T14:11:43.452Z,62.44
2023-03-02T14:14:17.730Z,61.12
2023-03-02T14:16:44.410Z,62.21
2023-03-02T14:19:13.714Z,61.42
2023-03-02T14:21:41.172Z,63.47
2023-03-02T14:24:07.818Z,62.91
2023-03-02T14:26:40.888Z,62.27
2023-03-02T14:29:19.703Z,62.71
2023-03-02T14:31:46.357Z,62.50
2023-03-02T14:34:14.804Z,62.61
2023-03-02T14:36:43.831Z,62.42
2023-03-02T14:39:23.284Z,63.13
2023-03-02T14:41:54.111Z,62.68
2023-03-02T14:44:22.209Z,63.37
2023-03-02T14:46:48.982Z,62.49
2023-03-02T14:49:15.699Z,63.18
2023-03-02T14:51:45.057Z,63.17
2023-03-02T14:54:17.402Z,62.00
2023-03-02T14:56:44.225Z,63.06
2023-03-02T14:59:14.315Z,63.04
2023-03-02T15:01:43.518Z,61.25
2023-03-02T15:04:10.524Z,62.62
2023-03-02T15:06:39.928Z,62.20
2023-03-02T15:09:06.838Z,62.91
2023-03-02T15:11:34.159Z,63.67
2023-03-02T15:14:00.921Z,62.87
2023-03-02T15:16:27.747Z,63.58
2023-03-02T15:18:54.496Z,63.30
2023-03-02T15:21:23.968Z,63.11
2023-03-02T15:23:51.059Z,63.91
2023-03-02T15:26:18.035Z,62.62
2023-03-02T15:28:45.682Z,61.70
2023-03-02T15:31:16.082Z,63.25
2023-03-02T15:33:45.180Z,61.96
2023-03-02T15:36:12.869Z,63.01
2023-03-02T15:38:39.715Z,63.74
2023-03-02T15:41:13.756Z,63.34
2023-03-02T15:43:40.467Z,63.41
2023-03-02T15:46:09.340Z,63.13
2023-03-02T15:48:36.997Z,63.69
2023-03-02T15:51:05.969Z,63.96
2023-03-02T15:53:37.447Z,64.11
2023-03-02T15:56:10.445Z,63.59
2023-03-02T15:58:37.030Z,63.20
2023-03-02T16:01:07.781Z,63.79
2023-03-02T16:03:34.551Z,61.78
2023-03-02T16:06:01.223Z,63.09
2023-03-02T16:08:27.856Z,63.00
2023-03-02T16:11:03.185Z,62.94
2023-03-02T16:13:32.908Z,62.73
2023-03-02T16:16:04.644Z,62.25
2023-03-02T16:18:31.463Z,62.43
2023-03-02T16:20:58.388Z,62.13
2023-03-02T16:23:25.087Z,62.83
2023-03-02T16:25:52.339Z,62.19
2023-03-02T16:28:19.782Z,62.43
2023-03-02T16:30:47.042Z,63.03
2023-03-02T16:33:17.258Z,62.74
2023-03-02T16:35:44.279Z,62.83
2023-03-02T16:38:10.972Z,63.66
2023-03-02T16:40:40.143Z,63.61
2023-03-02T16:43:09.010Z,63.10
2023-03-02T16:45:35.958Z,63.65
2023-03-02T16:48:03.858Z,63.59
2023-03-02T16:50:30.922Z,64.22
2023-03-02T16:52:58.572Z,63.74
2023-03-02T16:55:25.823Z,62.86
2023-03-02T16:57:52.782Z,63.20
2023-03-02T17:00:20.805Z,62.53
2023-03-02T17:02:48.444Z,63.74
2023-03-02T17:05:17.475Z,62.89
2023-03-02T17:07:44.143Z,63.90
2023-03-02T17:10:15.188Z,64.20
2023-03-02T17:12:41.846Z,62.93
2023-03-02T17:15:09.289Z,63.94
2023-03-02T17:17:35.941Z,62.70
2023-03-02T17:20:02.658Z,62.00
2023-03-02T17:22:29.321Z,62.17
2023-03-02T17:24:55.939Z,62.05
2023-03-02T17:27:25.949Z,61.63
2023-03-02T17:29:53.806Z,61.93
2023-03-02T17:32:21.741Z,62.02
2023-03-02T17:34:48.473Z,60.71
2023-03-02T17:37:17.374Z,62.02
2023-03-02T17:39:44.005Z,61.60
2023-03-02T17:42:10.691Z,61.63
2023-03-02T17:44:40.775Z,60.73
2023-03-02T17:47:08.342Z,60.40
2023-03-02T17:49:40.330Z,61.95
2023-03-02T17:52:07.139Z,61.61
2023-03-02T17:54:33.783Z,59.97
2023-03-02T17:57:00.490Z,59.32
2023-03-02T17:59:27.126Z,61.09
2023-03-02T18:01:53.753Z,60.42
2023-03-02T18:04:20.504Z,59.80
2023-03-02T18:06:47.347Z,59.65
2023-03-02T18:09:14.027Z,58.86
2023-03-02T18:11:43.836Z,60.16
2023-03-02T18:14:15.744Z,60.36
2023-03-02T18:16:42.456Z,58.75
2023-03-02T18:19:09.284Z,59.73
2023-03-02T18:21:36.484Z,59.31
2023-03-02T18:24:04.030Z,59.44
2023-03-02T18:26:30.745Z,59.70
2023-03-02T18:28:57.571Z,60.61
2023-03-02T18:31:24.337Z,59.41
2023-03-02T18:33:51.265Z,60.60
2023-03-02T18:36:18.090Z,61.13
2023-03-02T18:38:45.191Z,61.29
2023-03-02T18:41:13.095Z,61.37
2023-03-02T18:43:41.340Z,61.35
2023-03-02T18:46:17.549Z,61.02
2023-03-02T18:48:44.242Z,61.61
2023-03-02T18:51:10.870Z,62.24
2023-03-02T18:53:38.152Z,62.41
2023-03-02T18:56:05.254Z,62.44
2023-03-02T18:58:34.154Z,63.13
2023-03-02T19:01:01.979Z,62.34
2023-03-02T19:03:29.039Z,62.23
2023-03-02T19:05:58.135Z,62.95
2023-03-02T19:08:25.971Z,62.53
2023-03-02T19:10:53.924Z,62.87
2023-03-02T19:13:20.880Z,62.98
2023-03-02T19:15:47.849Z,63.28
2023-03-02T19:18:19.025Z,63.68
2023-03-02T19:20:46.917Z,63.29
2023-03-02T19:23:13.613Z,63.15
2023-03-02T19:25:40.383Z,63.44
2023-03-02T19:28:07.415Z,63.39
2023-03-02T19:30:34.777Z,63.23
2023-03-02T19:33:01.908Z,62.69
2023-03-02T19:35:29.798Z,63.65
2023-03-02T19:37:56.453Z,64.28
2023-03-02T19:40:25.411Z,64.42
2023-03-02T19:42:53.326Z,63.67
2023-03-02T19:45:23.808Z,64.19
2023-03-02T19:47:51.053Z,64.55
2023-03-02T19:50:19.679Z,64.85
2023-03-02T19:52:46.887Z,65.37
2023-03-02T19:55:14.923Z,65.85
2023-03-02T19:57:43.244Z,65.38
2023-03-02T20:00:16.467Z,65.29
2023-03-02T20:02:43.124Z,66.17
2023-03-02T20:05:10.698Z,66.54
2023-03-02T20:07:41.291Z,65.79
2023-03-02T20:10:11.378Z,66.30
2023-03-02T20:12:40.779Z,66.72
2023-03-02T20:15:07.860Z,66.15
2023-03-02T20:17:34.653Z,66.77
2023-03-02T20:20:03.539Z,66.03
2023-03-02T20:22:31.297Z,66.25
2023-03-02T20:24:57.918Z,66.46
2023-03-02T20:27:24.623Z,67.03
2023-03-02T20:29:51.287Z,66.68
2023-03-02T20:32:18.061Z,66.62
2023-03-02T20:34:45.146Z,67.13
2023-03-02T20:37:14.916Z,66.64
2023-03-02T20:39:44.043Z,66.26
2023-03-02T20:42:12.224Z,67.27
2023-03-02T20:44:39.016Z,67.00
2023-03-02T20:47:09.824Z,67.85
2023-03-02T20:49:37.732Z,67.36
2023-03-02T20:52:05.184Z,67.46
2023-03-02T20:54:35.641Z,67.08
2023-03-02T20:57:02.332Z,66.99
2023-03-02T20:59:29.338Z,67.45
2023-03-02T21:01:56.050Z,66.74
2023-03-02T21:04:23.040Z,67.21
2023-03-02T21:06:50.376Z,67.44
2023-03-02T21:09:18.064Z,68.01
2023-03-02T21:11:46.121Z,68.31
2023-03-02T21:14:16.256Z,68.05
2023-03-02T21:16:44.780Z,66.64
2023-03-02T21:19:17.541Z,67.30
2023-03-02T21:21:44.684Z,66.76
2023-03-02T21:24:13.288Z,67.60
2023-03-02T21:26:41.598Z,67.03
2023-03-02T21:29:09.449Z,67.79
2023-03-02T21:31:36.293Z,67.94
2023-03-02T21:34:03.495Z,68.38
2023-03-02T21:36:30.449Z,68.34
2023-03-02T21:38:57.278Z,68.21
2023-03-02T21:41:24.650Z,68.60
2023-03-02T21:43:51.465Z,68.12
2023-03-02T21:46:22.375Z,68.08
2023-03-02T21:48:51.020Z,68.34
2023-03-02T21:51:18.199Z,68.18
2023-03-02T21:53:44.824Z,68.26
2023-03-02T21:56:20.570Z,67.78
2023-03-02T21:58:51.331Z,68.96
2023-03-02T22:01:18.084Z,68.51
2023-03-02T22:03:45.119Z,68.32
2023-03-02T22:06:26.461Z,67.55
2023-03-02T22:08:53.955Z,68.67
2023-03-02T22:11:23.837Z,68.91
2023-03-02T22:13:52.124Z,68.45
2023-03-02T22:16:21.985Z,68.46
2023-03-02T22:18:53.584Z,68.88
2023-03-02T22:21:36.226Z,68.85
2023-03-02T22:24:22.883Z,68.40
2023-03-02T22:27:18.272Z,68.71
2023-03-02T22:29:47.020Z,68.47
2023-03-02T22:32:44.021Z,68.03
2023-03-02T22:35:25.729Z,68.58
2023-03-02T22:38:00.138Z,68.66
2023-03-02T22:40:32.672Z,68.48
2023-03-02T22:43:19.406Z,69.87
2023-03-02T22:45:46.036Z,72.17
2023-03-02T22:48:20.948Z,74.96
2023-03-02T22:50:49.523Z,77.36
2023-03-02T22:53:31.051Z,78.87
2023-03-02T22:56:03.568Z,79.95
2023-03-02T22:58:44.953Z,79.80
2023-03-02T23:01:20.982Z,78.76
2023-03-02T23:03:50.752Z,78.39
2023-03-02T23:06:31.728Z,78.60
2023-03-02T23:09:01.834Z,78.85
2023-03-02T23:11:33.777Z,79.07
2023-03-02T23:14:02.965Z,78.87
2023-03-02T23:16:35.801Z,78.56
2023-03-02T23:19:03.986Z,78.28
2023-03-02T23:21:48.972Z,79.34
2023-03-02T23:24:17.758Z,80.16
2023-03-02T23:26:44.855Z,80.94
2023-03-02T23:29:11.610Z,81.08
2023-03-02T23:31:38.533Z,80.88
2023-03-02T23:34:05.570Z,80.64
2023-03-02T23:36:32.261Z,80.57
2023-03-02T23:38:59.027Z,79.69
2023-03-02T23:41:26.746Z,79.55
2023-03-02T23:43:53.420Z,79.81
2023-03-02T23:46:20.301Z,79.66
2023-03-02T23:48:47.880Z,80.87
2023-03-02T23:51:15.042Z,80.69
2023-03-02T23:53:41.797Z,81.17
2023-03-02T23:56:08.484Z,82.43
2023-03-02T23:58:35.290Z,83.26
